createdAt,value
2019-04-27T00:01:40.632Z,98463.45
2019-04-27T00:04:23.591Z,98465.48
2019-04-27T00:07:09.553Z,98467.65
2019-04-27T00:09:43.210Z,98470.39
2019-04-27T00:12:16.479Z,98468.64
2019-04-27T00:14:48.362Z,98475.89
2019-04-27T00:17:41.279Z,98482.10
2019-04-27T00:19:56.889Z,98479.11
2019-04-27T00:22:29.913Z,98483.09
2019-04-27T00:24:58.405Z,98486.79
2019-04-27T00:27:26.878Z,98489.53
2019-04-27T00:29:55.383Z,98485.71
2019-04-27T00:32:23.868Z,98484.89
2019-04-27T00:34:53.240Z,98483.56
2019-04-27T00:37:23.808Z,98488.66
2019-04-27T00:40:00.025Z,98496.05
2019-04-27T00:42:28.592Z,98490.69
2019-04-27T00:44:57.072Z,98495.44
2019-04-27T00:47:25.569Z,98491.84
2019-04-27T00:49:54.945Z,98498.03
2019-04-27T00:52:24.098Z,98496.25
2019-04-27T00:54:53.899Z,98507.75
2019-04-27T00:57:36.117Z,98510.81
2019-04-27T01:00:25.953Z,98502.31
2019-04-27T01:03:07.918Z,98508.38
2019-04-27T01:05:36.569Z,98507.22
2019-04-27T01:08:05.067Z,98511.62
2019-04-27T01:10:33.623Z,98498.87
2019-04-27T01:13:03.301Z,98489.79
2019-04-27T01:15:34.009Z,98496.38
2019-04-27T01:18:11.989Z,98487.93
2019-04-27T01:20:33.019Z,98494.02
2019-04-27T01:23:01.522Z,98488.43
2019-04-27T01:25:31.619Z,98475.11
2019-04-27T01:28:20.645Z,98469.14
2019-04-27T01:30:53.687Z,98469.44
2019-04-27T01:33:22.271Z,98474.00
2019-04-27T01:35:50.741Z,98470.15
2019-04-27T01:38:19.278Z,98468.75
2019-04-27T01:40:47.713Z,98471.89
2019-04-27T01:43:16.214Z,98471.52
2019-04-27T01:45:44.863Z,98466.75
2019-04-27T01:48:23.143Z,98464.48
2019-04-27T01:50:43.553Z,98462.18
2019-04-27T01:53:12.120Z,98453.86
2019-04-27T01:55:40.854Z,98457.19
2019-04-27T01:58:11.010Z,98462.72
2019-04-27T02:00:44.171Z,98466.88
2019-04-27T02:03:14.307Z,98465.35
2019-04-27T02:05:56.397Z,98468.14
2019-04-27T02:08:24.908Z,98470.45
2019-04-27T02:10:53.548Z,98468.13
2019-04-27T02:13:22.110Z,98477.14
2019-04-27T02:15:50.653Z,98487.06
2019-04-27T02:18:19.476Z,98486.39
2019-04-27T02:20:49.206Z,98489.39
2019-04-27T02:23:19.203Z,98489.53
2019-04-27T02:25:49.536Z,98495.34
2019-04-27T02:28:22.723Z,98497.69
2019-04-27T02:30:53.001Z,98508.17
2019-04-27T02:33:25.881Z,98499.00
2019-04-27T02:35:54.451Z,98496.16
2019-04-27T02:38:22.957Z,98485.67
2019-04-27T02:40:53.582Z,98493.47
2019-04-27T02:43:25.149Z,98489.38
2019-04-27T02:45:53.631Z,98488.34
2019-04-27T02:48:22.208Z,98481.89
2019-04-27T02:50:52.320Z,98478.33
2019-04-27T02:53:22.533Z,98484.30
2019-04-27T02:55:51.009Z,98486.77
2019-04-27T02:58:21.548Z,98493.19
2019-04-27T03:00:50.250Z,98493.76
2019-04-27T03:03:20.379Z,98487.34
2019-04-27T03:05:50.344Z,98483.05
2019-04-27T03:08:20.002Z,98490.84
2019-04-27T03:10:50.380Z,98490.41
2019-04-27T03:13:20.570Z,98491.12
2019-04-27T03:15:53.165Z,98488.23
2019-04-27T03:18:23.305Z,98499.94
2019-04-27T03:20:53.429Z,98505.97
2019-04-27T03:23:21.973Z,98500.67
2019-04-27T03:26:00.254Z,98505.67
2019-04-27T03:28:29.799Z,98512.75
2019-04-27T03:31:02.446Z,98512.98
2019-04-27T03:33:32.451Z,98506.14
2019-04-27T03:36:02.629Z,98511.07
2019-04-27T03:38:30.208Z,98510.36
2019-04-27T03:41:00.476Z,98506.84
2019-04-27T03:43:30.189Z,98509.92
2019-04-27T03:46:00.548Z,98509.47
2019-04-27T03:48:29.608Z,98507.30
2019-04-27T03:51:09.961Z,98505.97
2019-04-27T03:53:43.021Z,98516.31
2019-04-27T03:56:13.167Z,98518.57
2019-04-27T03:58:43.296Z,98528.98
2019-04-27T04:01:11.809Z,98529.46
2019-04-27T04:03:40.291Z,98535.27
2019-04-27T04:06:10.782Z,98539.47
2019-04-27T04:08:39.853Z,98546.36
2019-04-27T04:11:22.565Z,98545.16
2019-04-27T04:13:52.746Z,98548.22
2019-04-27T04:16:22.869Z,98549.39
2019-04-27T04:19:02.244Z,98556.69
2019-04-27T04:21:30.796Z,98561.38
2019-04-27T04:24:01.027Z,98561.18
2019-04-27T04:26:32.806Z,98557.20
2019-04-27T04:29:00.102Z,98562.28
2019-04-27T04:31:32.614Z,98557.97
2019-04-27T04:33:59.698Z,98563.67
2019-04-27T04:36:30.068Z,98562.36
2019-04-27T04:39:00.511Z,98563.60
2019-04-27T04:41:43.670Z,98568.92
2019-04-27T04:44:22.939Z,98574.42
2019-04-27T04:47:00.360Z,98581.05
2019-04-27T04:49:29.636Z,98584.45
2019-04-27T04:51:59.489Z,98585.77
2019-04-27T04:54:30.034Z,98583.45
2019-04-27T04:56:59.470Z,98584.67
2019-04-27T04:59:29.093Z,98581.27
2019-04-27T05:02:00.239Z,98581.62
2019-04-27T05:04:29.183Z,98587.96
2019-04-27T05:06:59.246Z,98587.53
2019-04-27T05:09:29.491Z,98584.59
2019-04-27T05:11:58.795Z,98584.45
2019-04-27T05:14:28.857Z,98577.33
2019-04-27T05:16:59.184Z,98577.41
2019-04-27T05:19:28.808Z,98576.41
2019-04-27T05:21:59.147Z,98589.52
2019-04-27T05:24:29.243Z,98600.36
2019-04-27T05:26:59.020Z,98598.41
2019-04-27T05:29:29.290Z,98608.92
2019-04-27T05:31:59.220Z,98605.14
2019-04-27T05:34:29.457Z,98605.48
2019-04-27T05:37:00.731Z,98600.92
2019-04-27T05:39:30.028Z,98606.27
2019-04-27T05:41:59.749Z,98607.86
2019-04-27T05:44:33.070Z,98613.03
2019-04-27T05:47:05.376Z,98605.73
2019-04-27T05:49:42.838Z,98611.02
2019-04-27T05:52:14.462Z,98604.11
2019-04-27T05:54:40.269Z,98611.30
2019-04-27T05:57:09.512Z,98608.92
2019-04-27T05:59:39.823Z,98613.63
2019-04-27T06:02:09.333Z,98612.38
2019-04-27T06:04:39.356Z,98610.86
2019-04-27T06:07:09.194Z,98606.86
2019-04-27T06:09:39.123Z,98604.98
2019-04-27T06:12:08.974Z,98608.53
2019-04-27T06:14:39.244Z,98612.75
2019-04-27T06:17:09.454Z,98616.40
2019-04-27T06:19:39.060Z,98619.76
2019-04-27T06:22:09.519Z,98616.92
2019-04-27T06:24:39.725Z,98611.89
2019-04-27T06:27:09.390Z,98602.92
2019-04-27T06:29:40.585Z,98610.98
2019-04-27T06:32:08.996Z,98612.11
2019-04-27T06:34:39.038Z,98609.84
2019-04-27T06:37:09.451Z,98608.22
2019-04-27T06:39:38.685Z,98610.54
2019-04-27T06:42:16.718Z,98612.90
2019-04-27T06:44:39.382Z,98612.47
2019-04-27T06:47:09.111Z,98618.11
2019-04-27T06:49:39.500Z,98627.03
2019-04-27T06:52:08.670Z,98626.14
2019-04-27T06:54:38.846Z,98622.80
2019-04-27T06:57:09.120Z,98622.81
2019-04-27T06:59:37.759Z,98618.75
2019-04-27T07:02:06.237Z,98620.98
2019-04-27T07:04:34.742Z,98622.92
2019-04-27T07:07:03.218Z,98630.14
2019-04-27T07:09:31.721Z,98634.48
2019-04-27T07:12:00.208Z,98632.77
2019-04-27T07:14:29.463Z,98628.39
2019-04-27T07:16:59.131Z,98630.77
2019-04-27T07:19:28.779Z,98628.76
2019-04-27T07:21:57.213Z,98624.06
2019-04-27T07:24:25.718Z,98627.67
2019-04-27T07:26:54.196Z,98630.30
2019-04-27T07:29:23.238Z,98634.39
2019-04-27T07:31:51.931Z,98637.75
2019-04-27T07:34:20.436Z,98644.14
2019-04-27T07:36:49.253Z,98640.70
2019-04-27T07:39:19.230Z,98636.04
2019-04-27T07:41:48.763Z,98632.88
2019-04-27T07:44:35.205Z,98637.11
2019-04-27T07:47:16.845Z,98627.74
2019-04-27T07:49:46.683Z,98624.93
2019-04-27T07:52:15.159Z,98620.38
2019-04-27T07:54:43.671Z,98615.14
2019-04-27T07:57:12.146Z,98622.84
2019-04-27T07:59:42.095Z,98623.56
2019-04-27T08:02:11.185Z,98623.30
2019-04-27T08:04:40.122Z,98627.48
2019-04-27T08:07:09.233Z,98625.09
2019-04-27T08:09:39.641Z,98619.64
2019-04-27T08:12:08.219Z,98631.10
2019-04-27T08:14:38.420Z,98625.52
2019-04-27T08:17:06.978Z,98632.92
2019-04-27T08:19:35.552Z,98626.66
2019-04-27T08:22:04.102Z,98621.26
2019-04-27T08:24:32.694Z,98631.33
2019-04-27T08:27:12.045Z,98630.11
2019-04-27T08:29:42.192Z,98629.67
2019-04-27T08:32:12.315Z,98631.19
2019-04-27T08:34:40.820Z,98635.30
2019-04-27T08:37:09.376Z,98633.77
2019-04-27T08:39:39.489Z,98636.05
2019-04-27T08:42:09.542Z,98635.68
2019-04-27T08:44:39.691Z,98641.55
2019-04-27T08:47:09.579Z,98643.03
2019-04-27T08:49:39.421Z,98635.89
2019-04-27T08:52:09.372Z,98637.70
2019-04-27T08:54:39.402Z,98634.91
2019-04-27T08:57:09.693Z,98634.46
2019-04-27T08:59:39.323Z,98633.94
2019-04-27T09:02:08.811Z,98628.43
2019-04-27T09:04:39.239Z,98644.43
2019-04-27T09:07:25.615Z,98630.23
2019-04-27T09:09:55.738Z,98643.53
2019-04-27T09:12:31.787Z,98642.42
2019-04-27T09:15:16.751Z,98634.95
2019-04-27T09:17:48.757Z,98637.52
2019-04-27T09:20:18.803Z,98638.09
2019-04-27T09:22:48.863Z,98639.20
2019-04-27T09:25:19.207Z,98631.31
2019-04-27T09:27:49.258Z,98635.78
2019-04-27T09:30:19.086Z,98628.94
2019-04-27T09:32:47.723Z,98630.70
2019-04-27T09:35:16.239Z,98624.13
2019-04-27T09:37:45.871Z,98620.33
2019-04-27T09:40:14.781Z,98624.19
2019-04-27T09:42:43.285Z,98621.23
2019-04-27T09:45:12.087Z,98622.53
2019-04-27T09:47:40.598Z,98616.30
2019-04-27T09:50:09.610Z,98624.52
2019-04-27T09:52:38.108Z,98624.38
2019-04-27T09:55:08.564Z,98621.87
2019-04-27T09:57:37.107Z,98622.95
2019-04-27T10:00:10.377Z,98618.15
2019-04-27T10:02:38.949Z,98612.89
2019-04-27T10:05:08.767Z,98613.40
2019-04-27T10:07:37.344Z,98619.95
2019-04-27T10:10:09.358Z,98610.58
2019-04-27T10:12:37.876Z,98612.58
2019-04-27T10:15:07.497Z,98608.26
2019-04-27T10:17:36.081Z,98608.47
2019-04-27T10:20:06.303Z,98607.94
2019-04-27T10:22:41.212Z,98610.28
2019-04-27T10:25:09.062Z,98609.88
2019-04-27T10:27:37.569Z,98603.36
2019-04-27T10:30:09.469Z,98605.72
2019-04-27T10:32:37.969Z,98596.30
2019-04-27T10:35:07.598Z,98600.04
2019-04-27T10:37:36.370Z,98596.12
2019-04-27T10:40:06.160Z,98593.42
2019-04-27T10:42:35.842Z,98590.08
2019-04-27T10:45:07.459Z,98589.61
2019-04-27T10:47:36.128Z,98591.52
2019-04-27T10:50:06.965Z,98594.05
2019-04-27T10:52:35.468Z,98588.20
2019-04-27T10:55:05.964Z,98600.00
2019-04-27T10:57:34.572Z,98584.67
2019-04-27T11:00:03.689Z,98583.83
2019-04-27T11:02:32.204Z,98583.85
2019-04-27T11:05:02.329Z,98585.69
2019-04-27T11:07:32.480Z,98588.61
2019-04-27T11:10:01.024Z,98579.23
2019-04-27T11:12:29.545Z,98580.02
2019-04-27T11:14:58.095Z,98577.98
2019-04-27T11:17:26.796Z,98583.84
2019-04-27T11:19:55.262Z,98579.20
2019-04-27T11:22:23.767Z,98583.61
2019-04-27T11:24:52.325Z,98595.14
2019-04-27T11:27:20.835Z,98587.45
2019-04-27T11:29:49.317Z,98579.47
2019-04-27T11:32:17.871Z,98570.23
2019-04-27T11:34:59.978Z,98565.67
2019-04-27T11:37:30.130Z,98567.39
2019-04-27T11:39:58.615Z,98574.81
2019-04-27T11:42:27.105Z,98576.56
2019-04-27T11:44:58.220Z,98562.48
2019-04-27T11:47:27.422Z,98566.77
2019-04-27T11:49:57.841Z,98561.03
2019-04-27T11:52:26.226Z,98565.59
2019-04-27T11:54:55.717Z,98565.59
2019-04-27T11:57:24.294Z,98557.23
2019-04-27T11:59:52.802Z,98563.11
2019-04-27T12:02:21.291Z,98567.16
2019-04-27T12:04:49.816Z,98558.86
2019-04-27T12:07:18.290Z,98567.56
2019-04-27T12:09:48.134Z,98566.63
2019-04-27T12:12:21.677Z,98565.82
2019-04-27T12:14:47.556Z,98558.38
2019-04-27T12:17:16.529Z,98565.27
2019-04-27T12:19:46.496Z,98566.59
2019-04-27T12:22:16.386Z,98570.87
2019-04-27T12:24:45.765Z,98565.80
2019-04-27T12:27:30.978Z,98562.34
2019-04-27T12:30:13.259Z,98569.45
2019-04-27T12:32:41.740Z,98570.52
2019-04-27T12:35:11.858Z,98571.10
2019-04-27T12:37:40.347Z,98572.97
2019-04-27T12:40:09.724Z,98565.74
2019-04-27T12:42:38.274Z,98563.78
2019-04-27T12:45:08.010Z,98565.41
2019-04-27T12:47:36.613Z,98571.42
2019-04-27T12:50:08.121Z,98567.80
2019-04-27T12:52:36.612Z,98563.58
2019-04-27T12:55:25.727Z,98569.53
2019-04-27T12:57:58.737Z,98568.20
2019-04-27T13:00:28.915Z,98564.39
2019-04-27T13:02:57.747Z,98560.00
2019-04-27T13:05:26.425Z,98559.04
2019-04-27T13:07:54.903Z,98560.96
2019-04-27T13:10:23.416Z,98554.71
2019-04-27T13:12:51.958Z,98556.98
2019-04-27T13:15:20.703Z,98549.33
2019-04-27T13:17:49.359Z,98546.98
2019-04-27T13:20:18.199Z,98550.67
2019-04-27T13:22:47.548Z,98541.81
2019-04-27T13:25:16.120Z,98530.41
2019-04-27T13:27:44.604Z,98528.69
2019-04-27T13:30:13.570Z,98527.86
2019-04-27T13:32:42.115Z,98529.22
2019-04-27T13:35:10.848Z,98526.48
2019-04-27T13:37:41.188Z,98528.29
2019-04-27T13:40:11.528Z,98527.36
2019-04-27T13:42:44.636Z,98536.09
2019-04-27T13:45:18.039Z,98525.80
2019-04-27T13:47:57.188Z,98533.14
2019-04-27T13:50:33.339Z,98525.52
2019-04-27T13:53:01.808Z,98521.31
2019-04-27T13:55:30.309Z,98532.07
2019-04-27T13:57:58.777Z,98538.31
2019-04-27T14:00:27.267Z,98532.99
2019-04-27T14:02:55.744Z,98526.04
2019-04-27T14:05:24.225Z,98513.15
2019-04-27T14:07:52.757Z,98509.78
2019-04-27T14:10:21.244Z,98502.60
2019-04-27T14:12:49.745Z,98498.84
2019-04-27T14:15:18.680Z,98485.55
2019-04-27T14:17:47.222Z,98476.77
2019-04-27T14:20:15.851Z,98476.14
2019-04-27T14:22:44.364Z,98469.41
2019-04-27T14:25:12.882Z,98472.19
2019-04-27T14:27:41.773Z,98466.78
2019-04-27T14:30:12.419Z,98475.32
2019-04-27T14:32:42.366Z,98471.06
2019-04-27T14:35:11.330Z,98470.11
2019-04-27T14:37:40.279Z,98472.93
2019-04-27T14:40:09.842Z,98472.08
2019-04-27T14:42:38.349Z,98475.00
2019-04-27T14:45:09.443Z,98477.14
2019-04-27T14:47:39.878Z,98482.60
2019-04-27T14:50:09.025Z,98483.18
2019-04-27T14:52:40.543Z,98485.64
2019-04-27T14:55:08.611Z,98484.81
2019-04-27T14:57:39.342Z,98484.05
2019-04-27T15:00:10.207Z,98489.09
2019-04-27T15:02:39.297Z,98480.59
2019-04-27T15:05:08.066Z,98484.05
2019-04-27T15:07:36.826Z,98478.12
2019-04-27T15:10:06.301Z,98483.16
2019-04-27T15:12:34.803Z,98487.46
2019-04-27T15:15:05.304Z,98481.03
2019-04-27T15:17:33.803Z,98486.63
2019-04-27T15:20:06.910Z,98490.52
2019-04-27T15:22:35.787Z,98487.70
2019-04-27T15:25:12.438Z,98487.57
2019-04-27T15:27:40.470Z,98478.62
2019-04-27T15:30:11.518Z,98488.15
2019-04-27T15:32:53.435Z,98485.95
2019-04-27T15:35:39.738Z,98489.98
2019-04-27T15:38:11.279Z,98488.33
2019-04-27T15:40:55.167Z,98488.05
2019-04-27T15:43:27.304Z,98482.97
2019-04-27T15:45:57.754Z,98480.16
2019-04-27T15:48:30.485Z,98477.41
2019-04-27T15:51:00.950Z,98472.92
2019-04-27T15:53:26.248Z,98476.87
2019-04-27T15:56:00.118Z,98471.09
2019-04-27T15:58:26.119Z,98479.08
2019-04-27T16:00:56.395Z,98478.08
2019-04-27T16:03:27.254Z,98475.58
2019-04-27T16:05:55.298Z,98468.64
2019-04-27T16:08:23.806Z,98478.17
2019-04-27T16:10:52.274Z,98476.22
2019-04-27T16:13:20.772Z,98463.91
2019-04-27T16:15:54.172Z,98468.94
2019-04-27T16:18:19.529Z,98466.78
2019-04-27T16:20:48.515Z,98466.58
2019-04-27T16:23:18.157Z,98465.80
2019-04-27T16:25:50.771Z,98471.45
2019-04-27T16:28:18.384Z,98464.30
2019-04-27T16:30:50.635Z,98461.64
2019-04-27T16:33:20.186Z,98460.86
2019-04-27T16:35:48.779Z,98457.64
2019-04-27T16:38:19.174Z,98452.38
2019-04-27T16:40:47.645Z,98442.69
2019-04-27T16:43:16.139Z,98442.93
2019-04-27T16:45:44.612Z,98450.66
2019-04-27T16:48:13.111Z,98449.64
2019-04-27T16:50:41.653Z,98447.81
2019-04-27T16:53:12.456Z,98455.39
2019-04-27T16:55:40.420Z,98453.27
2019-04-27T16:58:15.811Z,98445.14
2019-04-27T17:00:40.950Z,98454.34
2019-04-27T17:03:09.986Z,98451.69
2019-04-27T17:05:38.477Z,98455.92
2019-04-27T17:08:13.971Z,98452.49
2019-04-27T17:10:38.960Z,98445.58
2019-04-27T17:13:12.967Z,98446.63
2019-04-27T17:15:55.787Z,98450.84
2019-04-27T17:18:34.904Z,98445.50
2019-04-27T17:21:16.177Z,98434.89
2019-04-27T17:23:33.604Z,98434.08
2019-04-27T17:26:09.492Z,98426.95
2019-04-27T17:28:37.542Z,98433.81
2019-04-27T17:31:04.334Z,98442.56
2019-04-27T17:33:34.453Z,98437.06
2019-04-27T17:36:03.136Z,98443.73
2019-04-27T17:38:31.920Z,98444.48
2019-04-27T17:41:00.400Z,98449.42
2019-04-27T17:43:29.026Z,98455.92
2019-04-27T17:45:58.242Z,98450.69
2019-04-27T17:48:28.768Z,98455.02
2019-04-27T17:51:02.552Z,98450.39
2019-04-27T17:53:29.872Z,98446.58
2019-04-27T17:56:02.950Z,98449.88
2019-04-27T17:58:28.707Z,98454.23
2019-04-27T18:00:57.967Z,98452.00
2019-04-27T18:03:28.527Z,98440.38
2019-04-27T18:05:58.202Z,98442.58
2019-04-27T18:08:26.913Z,98441.88
2019-04-27T18:11:00.645Z,98442.23
2019-04-27T18:13:26.526Z,98445.78
2019-04-27T18:15:55.107Z,98452.33
2019-04-27T18:18:27.047Z,98457.05
2019-04-27T18:20:55.447Z,98459.69
2019-04-27T18:23:37.828Z,98462.14
2019-04-27T18:26:17.439Z,98469.96
2019-04-27T18:28:52.290Z,98470.92
2019-04-27T18:31:18.921Z,98467.64
2019-04-27T18:33:47.399Z,98471.63
2019-04-27T18:36:15.938Z,98469.28
2019-04-27T18:38:44.430Z,98474.92
2019-04-27T18:41:13.002Z,98473.98
2019-04-27T18:43:46.494Z,98479.08
2019-04-27T18:46:14.847Z,98481.58
2019-04-27T18:48:50.270Z,98478.67
2019-04-27T18:51:20.768Z,98481.76
2019-04-27T18:53:49.998Z,98486.65
2019-04-27T18:56:19.108Z,98484.37
2019-04-27T18:58:47.658Z,98493.62
2019-04-27T19:01:16.195Z,98490.55
2019-04-27T19:03:44.700Z,98497.52
2019-04-27T19:06:13.253Z,98502.48
2019-04-27T19:08:42.129Z,98501.40
2019-04-27T19:11:10.609Z,98504.53
2019-04-27T19:13:40.113Z,98506.55
2019-04-27T19:16:08.779Z,98511.66
2019-04-27T19:18:37.828Z,98517.61
2019-04-27T19:21:08.744Z,98516.73
2019-04-27T19:23:38.244Z,98519.30
2019-04-27T19:26:14.909Z,98525.32
2019-04-27T19:29:01.422Z,98524.28
2019-04-27T19:31:33.971Z,98526.52
2019-04-27T19:34:02.478Z,98523.17
2019-04-27T19:36:30.997Z,98526.30
2019-04-27T19:38:59.574Z,98527.92
2019-04-27T19:41:28.877Z,98532.20
2019-04-27T19:43:57.551Z,98530.57
2019-04-27T19:46:26.034Z,98527.03
2019-04-27T19:48:54.538Z,98527.23
2019-04-27T19:51:23.014Z,98525.92
2019-04-27T19:53:51.521Z,98525.04
2019-04-27T19:56:21.416Z,98526.53
2019-04-27T19:58:54.174Z,98535.28
2019-04-27T20:01:30.323Z,98533.44
2019-04-27T20:04:16.465Z,98534.91
2019-04-27T20:06:44.994Z,98534.00
2019-04-27T20:09:19.082Z,98533.75
2019-04-27T20:11:47.785Z,98528.88
2019-04-27T20:14:16.293Z,98532.59
2019-04-27T20:16:44.774Z,98533.20
2019-04-27T20:19:13.284Z,98534.23
2019-04-27T20:21:41.779Z,98539.26
2019-04-27T20:24:11.801Z,98539.48
2019-04-27T20:26:40.516Z,98538.73
2019-04-27T20:29:09.021Z,98544.31
2019-04-27T20:31:37.500Z,98548.42
2019-04-27T20:34:06.081Z,98557.72
2019-04-27T20:36:34.568Z,98558.81
2019-04-27T20:39:05.744Z,98565.67
2019-04-27T20:41:33.275Z,98560.84
2019-04-27T20:44:02.351Z,98563.50
2019-04-27T20:46:31.295Z,98565.07
2019-04-27T20:49:01.454Z,98572.94
2019-04-27T20:51:51.056Z,98569.59
2019-04-27T20:54:21.699Z,98578.78
2019-04-27T20:56:51.616Z,98584.62
2019-04-27T20:59:22.052Z,98589.96
2019-04-27T21:01:50.729Z,98580.54
2019-04-27T21:04:23.561Z,98580.42
2019-04-27T21:06:53.684Z,98577.37
2019-04-27T21:09:22.184Z,98581.13
2019-04-27T21:11:50.662Z,98574.71
2019-04-27T21:14:21.591Z,98579.28
2019-04-27T21:16:51.709Z,98579.34
2019-04-27T21:19:21.014Z,98574.04
2019-04-27T21:21:51.033Z,98569.08
2019-04-27T21:24:28.764Z,98580.23
2019-04-27T21:26:57.160Z,98582.95
2019-04-27T21:29:25.659Z,98582.06
2019-04-27T21:31:54.135Z,98569.87
2019-04-27T21:34:23.160Z,98576.78
2019-04-27T21:36:51.634Z,98571.20
2019-04-27T21:39:21.710Z,98569.92
2019-04-27T21:41:51.749Z,98569.23
2019-04-27T21:44:21.831Z,98563.69
2019-04-27T21:46:51.929Z,98573.06
2019-04-27T21:49:22.275Z,98575.16
2019-04-27T21:52:04.586Z,98567.77
2019-04-27T21:54:34.733Z,98569.31
2019-04-27T21:57:03.281Z,98569.23
2019-04-27T21:59:31.781Z,98574.00
2019-04-27T22:02:02.362Z,98575.29
2019-04-27T22:04:31.507Z,98569.05
2019-04-27T22:07:01.396Z,98566.74
2019-04-27T22:09:30.001Z,98565.11
2019-04-27T22:11:58.545Z,98569.19
2019-04-27T22:14:27.083Z,98570.50
2019-04-27T22:16:55.557Z,98576.09
2019-04-27T22:19:24.526Z,98574.84
2019-04-27T22:21:53.006Z,98577.45
2019-04-27T22:24:23.119Z,98577.42
2019-04-27T22:26:51.894Z,98585.36
2019-04-27T22:29:22.153Z,98584.86
2019-04-27T22:31:51.642Z,98586.08
2019-04-27T22:34:21.053Z,98592.82
2019-04-27T22:36:49.682Z,98595.23
2019-04-27T22:39:20.846Z,98600.87
2019-04-27T22:41:56.944Z,98605.71
2019-04-27T22:44:32.787Z,98604.09
2019-04-27T22:47:01.287Z,98610.62
2019-04-27T22:49:31.259Z,98612.31
2019-04-27T22:52:01.540Z,98621.58
2019-04-27T22:54:31.820Z,98619.17
2019-04-27T22:57:02.134Z,98616.15
2019-04-27T22:59:32.250Z,98609.12
2019-04-27T23:02:11.563Z,98604.73
2019-04-27T23:04:44.302Z,98601.77
2019-04-27T23:07:12.793Z,98607.16
2019-04-27T23:09:42.837Z,98603.22
2019-04-27T23:12:14.302Z,98601.86
2019-04-27T23:14:42.783Z,98604.30
2019-04-27T23:17:31.543Z,98606.94
2019-04-27T23:20:01.407Z,98599.22
2019-04-27T23:22:31.542Z,98609.87
2019-04-27T23:25:01.037Z,98607.16
2019-04-27T23:27:31.352Z,98611.66
2019-04-27T23:30:01.430Z,98605.95
2019-04-27T23:32:34.883Z,98607.35
2019-04-27T23:35:03.435Z,98608.55
2019-04-27T23:37:31.938Z,98609.80
2019-04-27T23:40:00.535Z,98612.48
2019-04-27T23:42:31.567Z,98613.66
2019-04-27T23:45:00.177Z,98615.57
2019-04-27T23:47:28.678Z,98621.66
2019-04-27T23:49:57.151Z,98616.68
2019-04-27T23:52:27.366Z,98623.58
2019-04-27T23:54:55.834Z,98618.66
2019-04-27T23:57:24.331Z,98614.25
2019-04-27T23:59:52.807Z,98619.38
